Time;durP1;ratioP1;P1;durP2;ratioP2;P2;SDS_P1;SDS_P2;PMS_P1;PMS_P2;Temp;Humidity;BMP_temperature;BMP_pressure;BME280_temperature;BME280_humidity;BME280_pressure;Samples;Min_cycle;Max_cycle;Signal;HPM_P1;HPM_P2
2021/03/21 00:00:17;;;;;;;1.25;0.98;;;;;;;23.72;38.06;99010.34;5111613;28;20323;-60
2021/03/21 00:02:44;;;;;;;3.17;0.90;;;;;;;23.63;38.40;99001.44;5111269;28;20802;-59
2021/03/21 00:05:11;;;;;;;2.38;0.77;;;;;;;23.55;38.07;98993.38;5111316;28;20236;-59
2021/03/21 00:07:37;;;;;;;2.90;0.70;;;;;;;23.62;37.78;98994.44;5111469;28;20703;-56
2021/03/21 00:10:04;;;;;;;1.95;0.80;;;;;;;23.56;38.70;98995.03;5111018;28;20299;-61
2021/03/21 00:12:31;;;;;;;1.23;0.80;;;;;;;23.60;38.09;98991.06;5111908;28;20279;-60
2021/03/21 00:14:57;;;;;;;1.65;0.70;;;;;;;23.59;38.10;98988.56;5110886;28;20800;-60
2021/03/21 00:17:24;;;;;;;2.40;0.63;;;;;;;23.52;38.62;98988.34;5111989;28;20237;-61
2021/03/21 00:19:50;;;;;;;2.83;0.60;;;;;;;23.53;38.90;98991.84;5110580;28;20271;-61
2021/03/21 00:22:17;;;;;;;4.40;0.80;;;;;;;23.50;38.64;98989.47;5111604;28;20681;-59
2021/03/21 00:24:43;;;;;;;5.50;0.70;;;;;;;23.38;38.10;98997.72;5111004;28;20284;-60
2021/03/21 00:27:09;;;;;;;3.03;0.80;;;;;;;23.40;38.68;98989.56;5110729;28;20296;-61
2021/03/21 00:29:37;;;;;;;1.98;0.85;;;;;;;23.46;38.22;98995.13;5110850;28;20655;-59
2021/03/21 00:32:04;;;;;;;1.23;0.75;;;;;;;23.39;38.23;98996.72;5111327;28;20202;-61
2021/03/21 00:34:30;;;;;;;3.75;1.00;;;;;;;23.35;38.96;98994.50;5110687;28;20283;-60
2021/03/21 00:36:56;;;;;;;4.28;0.80;;;;;;;23.36;38.95;98993.53;5111222;28;20331;-57
2021/03/21 00:39:22;;;;;;;2.50;0.80;;;;;;;23.32;38.96;98989.50;5112542;28;20229;-60
2021/03/21 00:41:48;;;;;;;2.35;0.75;;;;;;;23.34;38.24;98995.50;5114516;28;20356;-61
2021/03/21 00:44:14;;;;;;;2.17;0.88;;;;;;;23.34;38.87;98985.66;5114696;28;20308;-60
2021/03/21 00:46:41;;;;;;;2.95;0.85;;;;;;;23.37;38.43;98984.53;5114770;28;20201;-61
2021/03/21 00:49:07;;;;;;;2.28;0.80;;;;;;;23.25;38.40;98976.75;5114667;28;20245;-61
2021/03/21 00:51:34;;;;;;;3.88;0.90;;;;;;;23.33;39.03;98970.69;5115023;28;20304;-60
2021/03/21 00:54:00;;;;;;;1.85;0.70;;;;;;;23.31;39.16;98964.63;5114781;28;20308;-60
2021/03/21 00:56:31;;;;;;;1.00;0.77;;;;;;;23.21;38.34;98972.69;5114395;28;20240;-61
2021/03/21 00:58:58;;;;;;;0.65;0.50;;;;;;;23.32;38.27;98960.97;5114164;28;20303;-61
2021/03/21 01:01:24;;;;;;;1.23;0.70;;;;;;;23.27;38.66;98964.09;5114547;28;20209;-61
2021/03/21 01:03:52;;;;;;;4.13;1.05;;;;;;;23.26;38.79;98959.78;5114492;28;20225;-59
2021/03/21 01:06:18;;;;;;;1.17;0.68;;;;;;;23.27;38.34;98956.09;5114545;28;20299;-60
2021/03/21 01:08:44;;;;;;;0.80;0.70;;;;;;;23.32;38.18;98954.81;5114438;28;20320;-60
2021/03/21 01:11:13;;;;;;;1.40;0.80;;;;;;;23.21;38.74;98954.03;5115005;28;20291;-57
2021/03/21 01:13:40;;;;;;;1.35;0.70;;;;;;;23.18;38.75;98948.16;5114293;28;20553;-61
2021/03/21 01:16:08;;;;;;;1.02;0.68;;;;;;;23.19;38.23;98950.69;5114136;28;20295;-60
2021/03/21 01:18:35;;;;;;;1.80;0.70;;;;;;;23.23;38.10;98948.53;5114497;28;20378;-60
2021/03/21 01:21:05;;;;;;;2.75;0.80;;;;;;;23.15;38.72;98944.00;5113834;28;20248;-60
2021/03/21 01:23:31;;;;;;;1.27;0.82;;;;;;;23.11;38.48;98931.94;5113442;28;20207;-60
2021/03/21 01:25:57;;;;;;;0.75;0.63;;;;;;;23.14;38.15;98931.63;5114197;28;20202;-60
2021/03/21 01:28:26;;;;;;;1.75;0.70;;;;;;;23.13;38.25;98931.78;5113618;27;20229;-60
2021/03/21 01:30:54;;;;;;;1.52;0.70;;;;;;;23.06;38.52;98934.19;5113860;28;20216;-61
2021/03/21 01:33:21;;;;;;;1.70;0.60;;;;;;;23.00;39.01;98934.78;5113999;28;20209;-61
2021/03/21 01:35:48;;;;;;;1.65;0.60;;;;;;;23.05;38.21;98928.03;5113592;28;20233;-56
2021/03/21 01:38:15;;;;;;;3.08;0.82;;;;;;;22.95;38.86;98929.06;5113758;28;20260;-61
2021/03/21 01:40:42;;;;;;;1.38;0.63;;;;;;;23.09;38.25;98923.25;5113513;28;20327;-56
2021/03/21 01:43:12;;;;;;;1.20;0.70;;;;;;;23.01;38.46;98915.16;5113302;28;20295;-60
2021/03/21 01:45:43;;;;;;;2.50;0.80;;;;;;;22.96;38.34;98917.44;5113629;28;20395;-60
2021/03/21 01:48:19;;;;;;;2.03;0.70;;;;;;;22.90;38.69;98917.06;5113532;28;20312;-60
2021/03/21 01:50:51;;;;;;;4.15;0.90;;;;;;;22.98;38.17;98902.97;5112899;28;20280;-59
2021/03/21 01:53:21;;;;;;;1.10;0.65;;;;;;;22.89;38.51;98899.38;5113159;28;20646;-59
2021/03/21 01:55:48;;;;;;;2.45;0.65;;;;;;;22.77;39.03;98903.25;5113321;28;20301;-60
2021/03/21 01:58:16;;;;;;;1.20;0.80;;;;;;;22.89;38.59;98901.22;5113072;28;20221;-60
2021/03/21 02:00:42;;;;;;;0.80;0.60;;;;;;;22.81;38.40;98906.44;5113215;28;20388;-60
2021/03/21 02:03:08;;;;;;;1.42;0.60;;;;;;;22.84;39.12;98908.81;5112670;28;20614;-61
2021/03/21 02:05:37;;;;;;;1.13;0.82;;;;;;;22.96;38.14;98901.44;5113056;28;20545;-61
2021/03/21 02:08:25;;;;;;;2.45;0.80;;;;;;;22.84;38.91;98903.50;5112487;28;20356;-61
2021/03/21 02:10:58;;;;;;;1.95;0.73;;;;;;;22.78;38.50;98898.75;5112754;27;20185;-61
2021/03/21 02:13:29;;;;;;;1.63;0.90;;;;;;;22.81;38.70;98907.28;5112669;28;20201;-60
2021/03/21 02:16:09;;;;;;;1.20;0.73;;;;;;;22.79;38.75;98890.59;5112402;28;20235;-59
2021/03/21 02:18:48;;;;;;;0.95;0.60;;;;;;;22.80;38.25;98884.31;5113026;28;20285;-60
2021/03/21 02:21:27;;;;;;;1.45;0.60;;;;;;;22.80;38.71;98886.09;5112317;27;20287;-61
2021/03/21 02:24:43;;;;;;;1.42;0.77;;;;;;;22.77;39.47;98881.94;5113124;28;20204;-61
2021/03/21 02:27:35;;;;;;;2.53;0.90;;;;;;;22.72;39.12;98890.38;5112913;28;20194;-61
2021/03/21 02:30:08;;;;;;;2.38;0.70;;;;;;;22.75;38.97;98878.59;5110046;28;20632;-61
2021/03/21 02:32:39;;;;;;;0.93;0.70;;;;;;;22.68;38.69;98877.50;5112557;28;20319;-61
2021/03/21 02:35:12;;;;;;;0.70;0.57;;;;;;;22.67;39.30;98876.66;5112423;28;20777;-60
2021/03/21 02:37:47;;;;;;;1.75;0.70;;;;;;;22.66;39.58;98868.81;5112146;28;20204;-61
2021/03/21 02:40:22;;;;;;;1.55;0.80;;;;;;;22.61;39.35;98871.09;5112099;28;20624;-60
2021/03/21 02:42:54;;;;;;;1.08;0.60;;;;;;;22.60;38.68;98859.63;5112375;28;20208;-60
2021/03/21 02:45:25;;;;;;;0.70;0.50;;;;;;;22.63;38.86;98863.78;5112424;28;20247;-61
2021/03/21 02:47:52;;;;;;;1.23;0.40;;;;;;;22.67;39.50;98867.84;5112504;28;20577;-60
2021/03/21 02:50:24;;;;;;;2.00;0.70;;;;;;;22.59;38.69;98873.91;5112324;28;20321;-61
2021/03/21 02:52:55;;;;;;;1.17;0.57;;;;;;;22.53;39.62;98859.38;5111814;28;20277;-60
2021/03/21 02:55:26;;;;;;;2.70;0.63;;;;;;;22.61;39.71;98865.78;5112096;28;20192;-61
2021/03/21 02:57:57;;;;;;;1.75;0.70;;;;;;;22.50;39.55;98850.84;5111606;28;20276;-60
2021/03/21 03:00:29;;;;;;;1.15;0.60;;;;;;;22.59;39.71;98849.09;5111420;28;20206;-60
2021/03/21 03:02:59;;;;;;;0.85;0.57;;;;;;;22.70;39.17;98849.72;5111532;28;20299;-60
2021/03/21 03:05:28;;;;;;;2.30;0.45;;;;;;;22.78;38.73;98846.28;5112028;28;20704;-60
2021/03/21 03:07:59;;;;;;;1.00;0.63;;;;;;;22.72;38.89;98836.25;5111948;28;20291;-61
2021/03/21 03:10:30;;;;;;;0.60;0.57;;;;;;;22.63;39.33;98839.81;5112163;28;20182;-60
2021/03/21 03:13:03;;;;;;;1.48;0.60;;;;;;;22.69;38.72;98836.53;5111781;28;20316;-61
2021/03/21 03:15:30;;;;;;;1.48;0.68;;;;;;;22.67;39.40;98835.88;5112250;28;20272;-61
2021/03/21 03:18:02;;;;;;;1.60;0.75;;;;;;;22.64;38.86;98830.84;5111230;28;20205;-59
2021/03/21 03:20:36;;;;;;;1.42;0.65;;;;;;;22.74;38.96;98831.59;5111472;28;20277;-60
2021/03/21 03:23:10;;;;;;;0.80;0.60;;;;;;;22.65;38.73;98828.03;5111158;28;20716;-61
2021/03/21 03:25:49;;;;;;;0.82;0.60;;;;;;;22.59;39.55;98827.78;5111551;28;20283;-61
2021/03/21 03:28:23;;;;;;;1.27;0.80;;;;;;;22.69;39.08;98821.38;5112077;28;20308;-58
2021/03/21 03:30:54;;;;;;;2.38;0.60;;;;;;;22.75;38.83;98816.44;5111483;27;20272;-60
2021/03/21 03:33:20;;;;;;;1.13;0.77;;;;;;;;;;5110970;28;20268;-61
2021/03/21 03:35:47;;;;;;;1.83;0.75;;;;;;;22.53;39.46;98808.75;5110987;28;20201;-60
2021/03/21 03:38:14;;;;;;;1.90;0.70;;;;;;;22.54;39.82;98813.06;5110929;28;20763;-61
2021/03/21 03:40:42;;;;;;;0.90;0.68;;;;;;;22.59;39.00;98809.13;5111400;28;20315;-60
2021/03/21 03:43:18;;;;;;;1.35;0.60;;;;;;;22.52;39.73;98809.72;5111410;28;20335;-60
2021/03/21 03:45:53;;;;;;;1.52;0.70;;;;;;;22.52;38.98;98798.25;5111895;28;20185;-59
2021/03/21 03:48:36;;;;;;;0.88;0.45;;;;;;;22.47;39.43;98798.69;5111558;28;20213;-61
2021/03/21 03:51:10;;;;;;;0.68;0.50;;;;;;;22.53;38.88;98799.91;5111934;28;20182;-60
2021/03/21 03:53:47;;;;;;;0.93;0.73;;;;;;;22.40;39.22;98800.31;5111597;28;20652;-61
2021/03/21 03:56:17;;;;;;;0.80;0.50;;;;;;;22.45;39.63;98802.47;5111400;28;20606;-61
2021/03/21 03:58:53;;;;;;;0.90;0.50;;;;;;;22.52;39.24;98815.06;5111232;28;20302;-61
2021/03/21 04:01:31;;;;;;;2.47;1.33;;;;;;;22.48;39.24;98808.38;5111460;28;20619;-61
2021/03/21 04:04:00;;;;;;;1.70;0.90;;;;;;;22.43;39.09;98813.31;5111748;28;20237;-60
2021/03/21 04:06:36;;;;;;;1.08;0.70;;;;;;;22.53;39.79;98806.09;5111382;28;20379;-62
2021/03/21 04:09:17;;;;;;;0.82;0.65;;;;;;;22.52;39.55;98812.41;5111373;28;20304;-62
2021/03/21 04:11:50;;;;;;;1.10;0.63;;;;;;;22.40;39.46;98797.63;5110663;28;20276;-61
2021/03/21 04:14:22;;;;;;;1.38;0.77;;;;;;;22.44;39.45;98793.66;5114810;28;20228;-61
2021/03/21 04:16:55;;;;;;;2.38;0.68;;;;;;;22.42;39.49;98793.00;5115208;28;20189;-61
2021/03/21 04:19:25;;;;;;;1.10;0.70;;;;;;;22.42;39.42;98793.00;5114606;28;20441;-61
2021/03/21 04:21:56;;;;;;;1.00;0.80;;;;;;;22.43;39.41;98796.47;5115326;28;20292;-61
2021/03/21 04:24:28;;;;;;;1.25;0.68;;;;;;;22.41;38.84;98793.97;5115215;28;20185;-61
2021/03/21 04:27:00;;;;;;;1.67;0.80;;;;;;;22.39;39.15;98790.63;5114893;28;20367;-61
2021/03/21 04:29:30;;;;;;;1.38;0.70;;;;;;;22.41;39.71;98790.47;5114935;28;20372;-61
2021/03/21 04:32:05;;;;;;;1.00;0.70;;;;;;;22.37;38.81;98784.63;5114976;28;20268;-60
2021/03/21 04:34:32;;;;;;;1.65;0.63;;;;;;;22.39;39.70;98779.97;5115572;28;20267;-61
2021/03/21 04:36:59;;;;;;;1.58;0.70;;;;;;;22.38;39.15;98775.63;5114494;28;20209;-61
2021/03/21 04:39:29;;;;;;;8.05;0.95;;;;;;;22.38;39.09;98782.78;5114623;28;20385;-61
2021/03/21 04:42:01;;;;;;;1.80;0.90;;;;;;;22.36;39.36;98772.28;5115003;28;20238;-59
2021/03/21 04:44:32;;;;;;;3.95;0.70;;;;;;;22.30;39.73;98773.72;5114411;28;20254;-61
2021/03/21 04:47:07;;;;;;;2.97;0.90;;;;;;;22.34;39.56;98771.59;5114656;28;20676;-61
2021/03/21 04:49:33;;;;;;;3.17;0.68;;;;;;;22.35;39.04;98765.28;5114943;28;20227;-57
2021/03/21 04:52:12;;;;;;;1.15;0.90;;;;;;;22.29;39.83;98757.91;5115271;28;20557;-62
2021/03/21 04:54:41;;;;;;;1.00;0.60;;;;;;;22.36;39.42;98761.63;5114526;28;20692;-60
2021/03/21 04:57:20;;;;;;;1.13;0.70;;;;;;;22.38;39.98;98750.81;5114419;28;20230;-62
2021/03/21 04:59:46;;;;;;;2.90;0.90;;;;;;;22.36;39.24;98740.31;5114675;28;20252;-61
2021/03/21 05:02:18;;;;;;;3.13;0.73;;;;;;;22.31;39.28;98737.25;5114462;28;20303;-60
2021/03/21 05:04:47;;;;;;;1.98;0.75;;;;;;;22.26;39.51;98739.53;5114789;28;20272;-58
2021/03/21 05:07:26;;;;;;;1.58;0.70;;;;;;;22.21;39.34;98747.13;5114709;27;20621;-55
2021/03/21 05:09:56;;;;;;;1.63;0.70;;;;;;;22.32;38.99;98749.59;5114965;28;20312;-60
2021/03/21 05:12:31;;;;;;;3.08;1.10;;;;;;;22.32;39.93;98753.09;5114593;28;20269;-61
2021/03/21 05:15:03;;;;;;;2.60;0.85;;;;;;;22.31;39.55;98754.06;5114662;28;20191;-61
2021/03/21 05:17:43;;;;;;;2.05;0.65;;;;;;;22.30;39.32;98764.88;5114582;27;20696;-60
2021/03/21 05:20:17;;;;;;;0.70;0.60;;;;;;;22.37;39.28;98771.28;5113885;28;20312;-61
2021/03/21 05:22:50;;;;;;;2.30;0.70;;;;;;;22.23;39.36;98767.28;5114035;28;20216;-60
2021/03/21 05:25:22;;;;;;;3.15;0.73;;;;;;;22.22;39.54;98764.78;5113395;28;20656;-60
2021/03/21 05:27:55;;;;;;;4.30;0.80;;;;;;;22.27;39.29;98770.50;5114416;28;20281;-61
2021/03/21 05:30:26;;;;;;;0.93;0.60;;;;;;;22.26;39.42;98774.97;5113917;28;20636;-61
2021/03/21 05:32:53;;;;;;;0.98;0.60;;;;;;;22.28;39.92;98780.16;5114177;28;20292;-60
2021/03/21 05:35:23;;;;;;;1.88;0.93;;;;;;;22.30;39.41;98783.53;5114034;28;20367;-61
2021/03/21 05:38:01;;;;;;;1.80;0.75;;;;;;;22.21;39.08;98773.75;5113955;28;20288;-61
2021/03/21 05:40:56;;;;;;;1.80;0.50;;;;;;;22.12;39.84;98776.31;5113882;28;20209;-61
2021/03/21 05:43:45;;;;;;;2.20;0.80;;;;;;;22.23;39.33;98771.78;5113243;28;20189;-61
2021/03/21 05:46:40;;;;;;;2.95;0.90;;;;;;;22.26;39.27;98768.81;5113964;28;20287;-52
2021/03/21 05:49:41;;;;;;;2.30;0.60;;;;;;;22.19;39.94;98768.56;5113355;28;20316;-60
2021/03/21 05:52:33;;;;;;;4.32;0.88;;;;;;;22.22;39.57;98767.44;5113384;28;20201;-60
2021/03/21 05:55:23;;;;;;;2.25;0.80;;;;;;;22.25;39.45;98765.31;5114020;28;20272;-60
2021/03/21 05:58:13;;;;;;;3.45;0.80;;;;;;;22.16;39.88;98766.22;5113196;28;20687;-60
2021/03/21 06:01:24;;;;;;;3.15;0.80;;;;;;;22.20;40.05;98750.75;5112994;28;20338;-59
2021/03/21 06:04:15;;;;;;;1.52;0.70;;;;;;;22.16;39.76;98750.22;5084059;28;20278;-58
2021/03/21 06:07:02;;;;;;;2.15;0.60;;;;;;;22.23;39.93;98734.50;5113281;28;20192;-59
2021/03/21 06:09:41;;;;;;;3.03;0.95;;;;;;;22.29;39.82;98737.41;5113577;28;20773;-60
2021/03/21 06:12:24;;;;;;;2.42;0.65;;;;;;;22.31;39.95;98734.59;5113184;28;20656;-60
2021/03/21 06:15:03;;;;;;;1.85;0.77;;;;;;;22.28;39.90;98737.53;5113477;28;20186;-60
2021/03/21 06:17:58;;;;;;;2.17;0.63;;;;;;;22.23;39.77;98740.66;5113477;28;20197;-60
2021/03/21 06:20:51;;;;;;;1.35;0.60;;;;;;;22.27;39.71;98742.03;5113385;28;20236;-59
2021/03/21 06:23:39;;;;;;;1.92;0.70;;;;;;;22.18;40.03;98735.78;5110880;28;20296;-60
2021/03/21 06:26:14;;;;;;;3.47;0.70;;;;;;;22.18;39.72;98727.81;5113128;28;20658;-60
2021/03/21 06:29:08;;;;;;;1.58;0.80;;;;;;;22.21;39.50;98731.16;5113246;28;20255;-60
2021/03/21 06:31:55;;;;;;;2.33;0.70;;;;;;;22.16;39.61;98739.59;5112715;28;20250;-60
2021/03/21 06:34:28;;;;;;;1.30;0.60;;;;;;;22.10;39.64;98741.03;5112926;27;20280;-60
2021/03/21 06:36:59;;;;;;;2.13;0.68;;;;;;;22.14;39.72;98747.72;5111969;28;20186;-59
2021/03/21 06:39:57;;;;;;;1.77;0.60;;;;;;;22.37;39.54;98739.34;5113146;28;20306;-61
2021/03/21 06:43:01;;;;;;;0.82;0.65;;;;;;;22.81;38.32;98743.84;5112861;28;20308;-59
2021/03/21 06:46:09;;;;;;;1.33;0.70;;;;;;;23.18;38.27;98751.66;5080754;28;20236;-60
2021/03/21 06:49:09;;;;;;;0.90;0.60;;;;;;;23.38;37.77;98749.59;5112177;28;20225;-59
2021/03/21 06:52:00;;;;;;;3.20;1.02;;;;;;;23.40;37.73;98744.13;5112753;28;20185;-61
2021/03/21 06:54:54;;;;;;;1.23;0.50;;;;;;;23.36;38.13;98732.91;5101818;28;20197;-59
2021/03/21 06:57:59;;;;;;;4.78;0.60;;;;;;;23.49;37.91;98727.13;5112536;28;20233;-60
2021/03/21 07:00:52;;;;;;;1.35;0.85;;;;;;;23.52;37.69;98737.50;5112311;28;20219;-60
2021/03/21 07:04:10;;;;;;;2.05;0.63;;;;;;;23.56;37.14;98733.50;5112478;28;20322;-59
2021/03/21 07:07:28;;;;;;;1.30;0.60;;;;;;;23.56;37.37;98730.81;5112213;28;20277;-59
2021/03/21 07:10:38;;;;;;;3.60;0.60;;;;;;;23.61;37.55;98733.84;5112247;28;20707;-60
2021/03/21 07:13:37;;;;;;;2.33;0.60;;;;;;;23.50;38.27;98717.28;5112472;28;20277;-58
2021/03/21 07:16:57;;;;;;;1.13;0.70;;;;;;;23.39;38.06;98721.09;5112170;28;20724;-55
2021/03/21 07:20:09;;;;;;;0.82;0.60;;;;;;;23.32;38.18;98720.06;5067124;28;20780;-55
2021/03/21 07:23:20;;;;;;;1.63;0.70;;;;;;;23.50;37.13;98706.59;5112293;28;20383;-61
2021/03/21 07:26:01;;;;;;;1.08;0.70;;;;;;;23.25;37.54;98711.84;5111845;28;20201;-62
2021/03/21 07:29:01;;;;;;;1.98;0.50;;;;;;;23.10;38.45;98711.59;5112215;28;20237;-61
2021/03/21 07:31:43;;;;;;;2.45;0.70;;;;;;;23.27;37.91;98704.53;5112283;28;20236;-56
2021/03/21 07:34:29;;;;;;;5.53;0.95;;;;;;;23.32;38.03;98714.72;5112119;28;20194;-56
2021/03/21 07:37:05;;;;;;;6.80;0.77;;;;;;;23.62;38.15;98724.84;5112772;28;20378;-59
2021/03/21 07:39:51;;;;;;;2.05;0.70;;;;;;;24.18;37.15;98716.34;5112019;28;20259;-60
2021/03/21 07:42:44;;;;;;;4.40;0.90;;;;;;;24.37;37.15;98725.91;5112340;28;20310;-55
2021/03/21 07:45:44;;;;;;;4.28;0.80;;;;;;;24.35;36.77;98728.75;5103683;28;20600;-57
2021/03/21 07:48:26;;;;;;;3.92;0.57;;;;;;;24.34;36.53;98732.41;5111891;28;20276;-60
2021/03/21 07:51:06;;;;;;;1.50;0.70;;;;;;;24.47;36.46;98726.56;5111960;28;20268;-60
2021/03/21 07:53:36;;;;;;;2.35;0.60;;;;;;;24.63;36.76;98728.47;5112499;28;20189;-60
2021/03/21 07:56:08;;;;;;;5.20;0.90;;;;;;;24.71;36.69;98725.78;5112114;28;20660;-61
2021/03/21 07:58:41;;;;;;;3.33;0.77;;;;;;;24.69;36.35;98719.75;5111779;28;20257;-59
2021/03/21 08:01:08;;;;;;;1.08;0.75;;;;;;;24.56;36.00;98714.06;5112084;28;20342;-61
2021/03/21 08:03:55;;;;;;;1.65;0.93;;;;;;;24.48;36.25;98708.69;5112275;28;20236;-59
2021/03/21 08:06:28;;;;;;;1.27;0.70;;;;;;;24.34;36.95;98705.69;5102869;28;20294;-60
2021/03/21 08:09:12;;;;;;;0.95;0.60;;;;;;;24.28;36.58;98706.38;5112484;28;20221;-58
2021/03/21 08:11:43;;;;;;;2.17;0.70;;;;;;;24.49;37.26;98707.69;5112042;28;20189;-60
2021/03/21 08:14:22;;;;;;;0.85;0.50;;;;;;;24.72;36.14;98703.38;5111674;28;20202;-59
2021/03/21 08:16:53;;;;;;;4.47;0.57;;;;;;;24.86;36.75;98701.84;5111764;28;20189;-62
2021/03/21 08:19:24;;;;;;;1.55;0.52;;;;;;;24.81;36.35;98701.53;5111702;28;20324;-61
2021/03/21 08:21:50;;;;;;;1.77;0.70;;;;;;;24.69;36.44;98698.38;5111302;28;20363;-60
2021/03/21 08:24:22;;;;;;;2.00;0.90;;;;;;;24.67;37.10;98694.19;5111543;28;20692;-60
2021/03/21 08:26:48;;;;;;;1.45;0.60;;;;;;;24.65;36.75;98696.22;5111428;28;20189;-61
2021/03/21 08:29:18;;;;;;;1.98;0.80;;;;;;;24.71;36.13;98684.81;5111561;28;20272;-57
2021/03/21 08:31:47;;;;;;;9.40;0.98;;;;;;;24.12;38.03;98685.81;5111331;28;20280;-61
2021/03/21 08:34:33;;;;;;;6.63;1.27;;;;;;;23.91;38.15;98672.91;5111059;28;20584;-57
2021/03/21 08:37:01;;;;;;;3.05;1.00;;;;;;;24.02;38.48;98672.59;5111766;28;20193;-62
2021/03/21 08:39:35;;;;;;;6.70;1.10;;;;;;;24.04;39.45;98671.59;5111685;28;20260;-62
2021/03/21 08:42:03;;;;;;;4.68;0.80;;;;;;;24.17;37.68;98661.28;5111696;28;20553;-63
2021/03/21 08:44:34;;;;;;;6.75;1.08;;;;;;;24.34;38.21;98651.41;5111325;28;20582;-62
2021/03/21 08:47:02;;;;;;;6.25;1.30;;;;;;;24.47;37.37;98653.59;5112041;28;20300;-62
2021/03/21 08:49:35;;;;;;;4.22;0.88;;;;;;;24.37;37.84;98643.91;5110894;28;20236;-56
2021/03/21 08:52:02;;;;;;;3.70;1.05;;;;;;;24.17;37.35;98646.06;5111299;28;20670;-61
2021/03/21 08:54:38;;;;;;;5.97;1.23;;;;;;;24.03;38.19;98638.69;5111252;28;20209;-59
2021/03/21 08:57:07;;;;;;;4.72;0.85;;;;;;;24.13;37.46;98644.75;5111275;28;20209;-58
2021/03/21 14:29:23;;;;;;;;;;;;;;;16.50;36.18;93811.41;5117238;27;20453;-75
2021/03/21 14:34:41;;;;;;;4.18;2.40;;;;;;;12.48;41.41;93841.44;5091254;27;20391;-78
2021/03/21 14:37:07;;;;;;;;;;;;;;;8.86;50.00;93823.72;5088253;28;20471;-78
2021/03/21 14:39:33;;;;;;;5.23;3.13;;;;;;;8.70;50.44;93824.00;5068356;28;20439;-78
2021/03/21 14:41:59;;;;;;;4.57;3.20;;;;;;;6.19;57.85;93833.25;5085259;28;20225;-81
2021/03/21 14:44:27;;;;;;;4.95;3.40;;;;;;;4.71;64.40;93841.50;5084119;28;20445;-82
2021/03/21 14:46:53;;;;;;;5.33;2.77;;;;;;;4.20;66.83;93839.09;5102623;28;20595;-82
2021/03/21 14:49:19;;;;;;;4.90;3.40;;;;;;;3.97;67.51;93843.25;5102842;28;20202;-81
2021/03/21 14:51:49;;;;;;;6.00;3.27;;;;;;;3.60;70.37;93842.69;5110183;28;20284;-80
2021/03/21 14:54:15;;;;;;;7.63;3.50;;;;;;;3.33;72.24;93847.09;5097708;28;20411;-81
2021/03/21 14:56:41;;;;;;;7.60;3.97;;;;;;;3.24;73.51;93842.03;5110035;28;20930;-85
2021/03/21 14:59:07;;;;;;;4.33;3.07;;;;;;;3.04;75.02;93841.44;5108846;28;20190;-77
2021/03/21 15:01:33;;;;;;;8.93;3.50;;;;;;;2.93;77.16;93843.34;5105550;28;20269;-80
2021/03/21 15:03:59;;;;;;;8.00;3.63;;;;;;;2.77;79.46;93846.59;5109755;28;20193;-81
2021/03/21 15:06:25;;;;;;;6.37;3.67;;;;;;;2.79;80.48;93828.41;5108579;28;20284;-86
2021/03/21 15:08:55;;;;;;;8.23;3.87;;;;;;;2.83;81.39;93845.22;5110459;28;20197;-83
2021/03/21 15:11:21;;;;;;;5.33;3.50;;;;;;;3.01;82.11;93841.75;5108113;28;20346;-82
2021/03/21 15:13:47;;;;;;;7.90;4.50;;;;;;;2.96;81.58;93845.63;5107831;28;20805;-84
2021/03/21 15:16:13;;;;;;;6.13;3.70;;;;;;;3.19;80.90;93850.22;5108716;28;20201;-83
2021/03/21 15:18:41;;;;;;;8.80;3.97;;;;;;;3.34;80.57;93848.69;5103023;28;20234;-83
2021/03/21 15:21:08;;;;;;;6.57;3.90;;;;;;;3.42;80.49;93849.72;5086721;28;20688;-84
2021/03/21 15:23:36;;;;;;;10.33;4.27;;;;;;;3.17;80.83;93844.44;5090359;28;20199;-81
2021/03/21 15:26:09;;;;;;;9.27;4.33;;;;;;;3.22;82.63;93844.78;5088847;28;20236;-79
2021/03/21 15:28:39;;;;;;;8.27;4.87;;;;;;;3.29;81.43;93848.34;5089147;28;20202;-84
2021/03/21 15:31:07;;;;;;;9.67;4.63;;;;;;;3.09;82.17;93845.19;5086436;28;20191;-84
2021/03/21 15:33:35;;;;;;;7.07;4.10;;;;;;;3.07;82.39;93846.31;5088109;28;20238;-80
2021/03/21 15:36:01;;;;;;;8.33;4.60;;;;;;;3.02;81.80;93840.81;5083949;28;20710;-84
2021/03/21 15:38:27;;;;;;;8.97;4.33;;;;;;;3.00;83.19;93845.28;5091616;28;20715;-86
2021/03/21 15:40:53;;;;;;;12.37;5.20;;;;;;;2.86;82.94;93849.25;5100552;28;20186;-86
2021/03/21 15:43:20;;;;;;;6.97;4.57;;;;;;;2.74;85.41;93846.91;5087133;28;20669;-81
2021/03/21 15:45:46;;;;;;;6.97;4.03;;;;;;;2.86;84.52;93855.19;5071554;28;20195;-83
2021/03/21 15:48:15;;;;;;;12.57;6.35;;;;;;;2.82;84.37;93853.88;5070479;28;20499;-85
2021/03/21 15:50:41;;;;;;;13.53;5.63;;;;;;;2.81;86.36;93856.63;5074961;28;20561;-81
2021/03/21 15:53:10;;;;;;;9.50;5.03;;;;;;;2.80;86.32;93858.41;5072896;28;20767;-86
2021/03/21 15:55:39;;;;;;;12.33;6.00;;;;;;;2.82;85.95;93853.09;5064901;28;20236;-84
2021/03/21 15:58:06;;;;;;;9.13;5.60;;;;;;;2.77;87.22;93866.44;5074727;28;20293;-84
2021/03/21 16:00:36;;;;;;;16.50;5.90;;;;;;;2.64;88.23;93859.06;5064052;28;20670;-82
2021/03/21 16:03:04;;;;;;;8.90;5.73;;;;;;;2.71;88.03;93854.13;5063431;28;20203;-83
2021/03/21 16:05:31;;;;;;;11.77;5.87;;;;;;;2.83;86.95;93849.53;5068584;28;20646;-79
2021/03/21 16:07:57;;;;;;;11.17;5.80;;;;;;;2.85;87.09;93851.00;5072728;28;20191;-83
2021/03/21 16:10:26;;;;;;;13.00;5.87;;;;;;;2.79;87.28;93856.75;5073957;28;20223;-82
2021/03/21 16:12:52;;;;;;;9.80;5.77;;;;;;;2.52;88.38;93863.66;5069703;28;20227;-78
2021/03/21 16:15:21;;;;;;;13.23;6.73;;;;;;;2.36;89.74;93858.38;5073026;28;20255;-81
2021/03/21 16:17:48;;;;;;;13.93;7.67;;;;;;;2.49;89.97;93852.84;5070680;28;20193;-79
2021/03/21 16:20:17;;;;;;;15.90;8.10;;;;;;;2.56;90.56;93857.25;5074222;28;20199;-79
2021/03/21 16:22:45;;;;;;;14.60;7.10;;;;;;;2.54;90.22;93854.00;5072147;28;20539;-80
2021/03/21 16:25:13;;;;;;;16.40;6.87;;;;;;;2.46;90.61;93858.28;5075916;28;20195;-82
2021/03/21 16:27:39;;;;;;;13.03;7.27;;;;;;;2.46;91.25;93851.38;5074309;28;20727;-82
2021/03/21 16:30:10;;;;;;;16.53;7.27;;;;;;;2.66;89.22;93840.88;5074789;28;20719;-82
2021/03/21 16:32:39;;;;;;;17.70;8.60;;;;;;;2.77;88.49;93840.66;5074608;28;20231;-85
2021/03/21 16:35:09;;;;;;;14.37;7.20;;;;;;;2.60;89.32;93847.47;5075105;28;20203;-78
2021/03/21 16:37:35;;;;;;;16.30;8.88;;;;;;;2.42;90.75;93842.31;5081479;28;20435;-84
2021/03/21 16:40:01;;;;;;;18.70;8.70;;;;;;;2.91;87.88;93852.97;5094908;28;20206;-80
2021/03/21 16:42:27;;;;;;;13.13;7.73;;;;;;;3.41;85.76;93842.91;5093339;28;20198;-80
2021/03/21 16:44:53;;;;;;;15.20;8.33;;;;;;;3.45;84.78;93839.06;5074044;28;20201;-81
2021/03/21 16:47:21;;;;;;;15.70;7.57;;;;;;;3.27;86.08;93841.75;5074480;28;20202;-81
2021/03/21 16:49:50;;;;;;;16.27;7.50;;;;;;;2.98;86.46;93837.69;5074256;28;20257;-84
2021/03/21 16:52:17;;;;;;;14.40;7.30;;;;;;;2.65;89.83;93845.25;5074424;28;20257;-82
2021/03/21 16:54:44;;;;;;;18.30;9.13;;;;;;;2.62;89.34;93844.75;5074447;28;20195;-79
2021/03/21 16:57:10;;;;;;;15.20;8.60;;;;;;;2.44;91.11;93855.06;5072811;28;20293;-80
2021/03/21 16:59:36;;;;;;;17.07;8.37;;;;;;;2.20;91.87;93844.41;5073808;28;20294;-81
2021/03/21 17:02:03;;;;;;;16.80;7.70;;;;;;;2.16;92.62;93843.06;5074297;28;20596;-79
2021/03/21 17:04:31;;;;;;;18.47;8.53;;;;;;;2.03;95.06;93840.88;5073717;28;20557;-79
2021/03/21 17:06:57;;;;;;;18.23;8.33;;;;;;;2.01;95.95;93849.69;5073701;28;20205;-79
2021/03/21 17:09:24;;;;;;;15.30;7.63;;;;;;;1.97;95.56;93854.31;5074037;28;20201;-79
2021/03/21 17:11:50;;;;;;;16.17;7.60;;;;;;;1.98;96.37;93849.97;5073925;28;20230;-79
2021/03/21 17:14:17;;;;;;;23.23;9.93;;;;;;;1.98;96.72;93850.81;5073644;28;20284;-78
2021/03/21 17:16:44;;;;;;;19.23;9.17;;;;;;;1.87;98.39;93852.78;5073837;28;20538;-79
2021/03/21 17:19:11;;;;;;;24.40;10.73;;;;;;;1.92;97.85;93856.53;5073557;28;20296;-79
2021/03/21 17:21:37;;;;;;;21.87;9.67;;;;;;;1.95;97.66;93852.84;5073874;28;20202;-78
2021/03/21 17:24:04;;;;;;;19.90;10.05;;;;;;;1.75;98.55;93865.84;5073535;28;20453;-82
2021/03/21 17:26:34;;;;;;;63.53;23.80;;;;;;;1.82;98.97;93866.09;5073693;28;20226;-79
2021/03/21 17:29:00;;;;;;;34.63;14.40;;;;;;;1.65;99.60;93871.06;5074237;28;20657;-78
2021/03/21 17:31:27;;;;;;;25.50;11.50;;;;;;;1.43;100.00;93864.53;5074272;28;20208;-86
2021/03/21 17:33:53;;;;;;;19.90;10.17;;;;;;;1.53;100.00;93863.66;5075622;28;20274;-79
2021/03/21 17:36:19;;;;;;;23.90;11.10;;;;;;;1.42;100.00;93870.63;5073463;28;20230;-79